Flight Track Log - Related Links

Times and Time Zones

All times are in EDT time to prevent confusion due to time zone crossing. See the SKW6345 flight status page for this flight to view local times or setup timezone preferences in your user account.


Time Position Orientation Groundspeed Altitude Reporting Facility
EDT Latitude Longitude Course Direction KTS MPH feet Rate Location/Type
Sat 08:40:51 PM 33.9167 -118.4500 139° Southeast 183 211 2,400  Level Southern California TRACON
Sat 08:41:52 PM 33.8667 -118.4667 195° South 191 220 3,800 1,403 Climbing Southern California TRACON
Sat 08:42:08 PM 33.8597 -118.4583 135° Southeast 192 221 4,200 1,231 Climbing Los Angeles Center
Sat 08:43:10 PM 33.8053 -118.4547 177° South 204 235 5,400 1,258 Climbing Los Angeles Center
Sat 08:44:12 PM 33.7472 -118.4481 175° South 212 244 6,800 1,268 Climbing Los Angeles Center
Sat 08:45:13 PM 33.6883 -118.3908 141° Southeast 229 264 8,000 1,073 Climbing Los Angeles Center
Sat 08:46:00 PM 33.6654 -118.1247 139° Southeast  Level Estimated
Sat 08:46:15 PM 33.6425 -118.3358 135° Southeast 235 270 9,000  Level Los Angeles Center
Sat 08:47:17 PM 33.6103 -118.2633 118° Southeast 245 282 9,100 49 Climbing Los Angeles Center
Sat 08:48:18 PM 33.5783 -118.1900 118° Southeast 248 285 9,100  Level Los Angeles Center
Sat 08:49:20 PM 33.5375 -118.1233 126° Southeast 253 291 9,100  Level Los Angeles Center
Sat 08:50:22 PM 33.4906 -118.0411 124° Southeast 251 289 9,100  Level Los Angeles Center
Sat 08:51:23 PM 33.4517 -117.9706 123° Southeast 253 291 9,100  Level Los Angeles Center
Sat 08:52:25 PM 33.4119 -117.9019 125° Southeast 252 290 9,100  Level Los Angeles Center
Sat 08:52:52 PM 33.3833 -117.8667 134° Southeast 256 295 9,100  Level Southern California TRACON
Sat 08:53:27 PM 33.3722 -117.8325 111° Southeast 253 291 9,100  Level Los Angeles Center
Sat 08:54:28 PM 33.3325 -117.7625 124° Southeast 253 291 9,100  Level Los Angeles Center
Sat 08:55:30 PM 33.2919 -117.6933 125° Southeast 254 292 9,100  Level Los Angeles Center
Sat 08:56:31 PM 33.2600 -117.6378 125° Southeast 254 292 9,100  Level Los Angeles Center
Sat 08:56:53 PM 33.2333 -117.5833 120° Southeast 256 295 9,100 -293 Level Southern California TRACON
Sat 08:57:53 PM 33.1667 -117.5333 148° Southeast 260 299 8,700 -496 Descending Southern California TRACON
Sat 08:58:54 PM 33.1000 -117.4833 148° Southeast 268 308 8,100 -626 Descending Southern California TRACON
Sat 08:59:48 PM 33.0536 -117.4464 146° Southeast 270 311 7,500 -517 Descending Los Angeles Center
Sat 09:00:50 PM 32.9911 -117.3936 145° Southeast 274 315 7,100 -195 Descending Los Angeles Center
Sat 09:01:51 PM 32.9297 -117.3439 146° Southeast 269 310 7,100  Level Los Angeles Center
Sat 09:02:54 PM 32.8833 -117.2667 126° Southeast 257 296 7,100  Level Southern California TRACON
Sat 09:03:54 PM 32.8333 -117.2000 132° Southeast 260 299 7,100 -50 Level Southern California TRACON
Sat 09:04:54 PM 32.7833 -117.1333 132° Southeast 255 293 7,000 -650 Descending Southern California TRACON
Sat 09:05:54 PM 32.7833 -117.0500 90° East 266 306 5,800 -893 Descending Southern California TRACON
Sat 09:06:55 PM 32.7667 -116.9667 103° East 241 277 5,200 -347 Descending Southern California TRACON
Sat 09:07:55 PM 32.7500 -116.9000 107° East 216 249 5,100 -50 Descending Southern California TRACON
Sat 09:08:55 PM 32.7000 -116.8833 164° South 205 236 5,100 -200 Level Southern California TRACON
Sat 09:09:55 PM 32.6833 -116.9333 248° West 193 222 4,700 -600 Descending Southern California TRACON
Sat 09:10:55 PM 32.6833 -117.0000 270° West 180 207 3,900 -895 Descending Southern California TRACON
Sat 09:11:49 PM 32.7000 -117.0500 292° West 181 208 3,000 -1,043 Descending Southern California TRACON
Sat 09:12:50 PM 32.7167 -117.1000 292° West 167 192 1,900 -1,091 Descending Southern California TRACON
Sat 09:13:50 PM 32.7167 -117.1500 270° West 147 169 800 -1,063 Descending Southern California TRACON
Sat 09:14:09 PM 32.7267 -117.1608 318° Northwest 152 175 500 -370 Descending Los Angeles Center
Sat 09:15:11 PM 32.7356 -117.2011 285° West 143 165 300 -194 Descending Los Angeles Center

Login

Don't have an account? Register now (free) for customized features, flight alerts, and more!